West Virginia — KSKW — position and weather

sailwx.info

Track history (hours):
 
Tides and Currents Weather Stations Pressure Air Temp Water Temp Dewpoint Dewpoint Depression Visibility Wind Speed Wind Dir Waves Ship Positions

West Virginia

Owner: Crowley Petroleum Services, Inc., Jacksonville, FL. More information available from US FCC via Universal Licensing System and Coast Guard Vessel Documentation Center.

Last reported at 2017-Oct-14 23:18 UTC. Time now 2017-Oct-20 18:15 UTC.
Position N 25°13' W 080°05'.

Length 183 m; draft 8.5 m.

Type: Tanker. MMSI: 338158000.

Date/timePositionNaut miles runAvg speedWind from/ knotsBaromVisibWave heightAir tempDewpointWater temp
2017-Oct-14 23:18N 25°13' W 080°05'310.5
2017-Oct-14 23:01N 25°16' W 080°03'510.3
2017-Oct-14 22:30N 25°20' W 080°01'5 9.9
2017-Oct-14 22:00N 25°25' W 080°00'510.0
2017-Oct-14 21:31N 25°30' W 080°00'510.0
2017-Oct-14 21:00N 25°35' W 080°00'510.0
2017-Oct-14 20:31N 25°40' W 079°60'510.2
2017-Oct-14 20:01N 25°45' W 079°60'510.5
2017-Oct-14 19:30N 25°51' W 079°60'510.4
2017-Oct-14 19:00N 25°56' W 079°60'510.5
2017-Oct-14 18:30N 26°01' W 080°00'510.7
2017-Oct-14 18:01N 26°05' W 080°04'3 6.0
2017-Oct-14 17:30N 26°06' W 080°07'0 0.1
2017-Oct-14 16:57N 26°06' W 080°07'0 0.0
2017-Oct-14 16:27N 26°06' W 080°07'0 0.0
2017-Oct-14 15:57N 26°06' W 080°07'0 0.0
2017-Oct-14 15:27N 26°06' W 080°07'0 0.0
2017-Oct-14 14:57N 26°06' W 080°07'0 0.0
2017-Oct-14 14:09N 26°06' W 080°07'0 0.0
2017-Oct-14 13:57N 26°06' W 080°07'0 0.0
2017-Oct-14 13:27N 26°06' W 080°07'0 0.0
2017-Oct-14 13:00N 26°06' W 080°07'0 0.0
2017-Oct-14 12:30N 26°06' W 080°07'0 0.0
2017-Oct-14 12:00N 26°06' W 080°07'0 0.0
2017-Oct-14 11:27N 26°06' W 080°07'0 0.0
2017-Oct-14 10:57N 26°06' W 080°07'0 0.0
2017-Oct-14 10:30N 26°06' W 080°07'0 0.0
2017-Oct-14 10:00N 26°06' W 080°07'0 0.0
2017-Oct-14 09:18N 26°06' W 080°07'0 0.0
2017-Oct-14 09:00N 26°06' W 080°07'0 0.0
2017-Oct-14 08:30N 26°06' W 080°07'0 0.0
2017-Oct-14 08:00N 26°06' W 080°07'0 0.0
2017-Oct-14 07:30N 26°06' W 080°07'0 0.0
2017-Oct-14 07:00N 26°06' W 080°07'0 0.0
2017-Oct-14 06:21N 26°06' W 080°07'0 0.0
2017-Oct-14 06:00N 26°06' W 080°07'0 0.0
2017-Oct-14 05:21N 26°06' W 080°07'0 0.0
2017-Oct-14 04:51N 26°06' W 080°07'0 0.0
2017-Oct-14 04:18N 26°06' W 080°07'0 0.0
2017-Oct-14 03:54N 26°06' W 080°07'0 0.0
2017-Oct-14 03:24N 26°06' W 080°07'0 0.0
2017-Oct-14 02:54N 26°06' W 080°07'0 0.0
2017-Oct-14 02:24N 26°06' W 080°07'0 0.0
2017-Oct-14 01:54N 26°06' W 080°07'0 0.0
2017-Oct-13 23:12N 26°06' W 080°07'0 0.0
2017-Oct-13 22:57N 26°06' W 080°07'0 0.0
2017-Oct-13 22:27N 26°06' W 080°07'0 0.0
2017-Oct-13 22:00N 26°06' W 080°07'0 0.0
2017-Oct-13 21:30N 26°06' W 080°07'0 0.0
2017-Oct-13 21:00N 26°06' W 080°07'0 0.0
2017-Oct-13 20:30N 26°06' W 080°07'0 0.0
2017-Oct-13 20:00N 26°06' W 080°07'0 0.0
2017-Oct-13 19:30N 26°06' W 080°07'0 0.0
2017-Oct-13 19:00N 26°06' W 080°07'0 0.0
2017-Oct-13 18:30N 26°06' W 080°07'0 0.0
2017-Oct-13 17:30N 26°06' W 080°07'0 0.0
2017-Oct-13 17:00N 26°06' W 080°07'0 0.0
2017-Oct-13 16:30N 26°06' W 080°07'0 0.0
2017-Oct-13 16:00N 26°06' W 080°07'0 0.0
2017-Oct-13 15:21N 26°06' W 080°07'0 0.0
2017-Oct-13 15:00N 26°06' W 080°07'0 0.0
2017-Oct-13 14:24N 26°06' W 080°07'0 0.1
2017-Oct-13 14:00N 26°06' W 080°07'2 3.4
2017-Oct-13 13:30N 26°06' W 080°05'4 8.5
2017-Oct-13 13:01N 26°09' W 080°02'4 7.8
2017-Oct-13 12:30N 26°05' W 080°02'4 7.1
2017-Oct-13 12:00N 26°02' W 080°01'3 6.0
2017-Oct-13 11:30N 25°59' W 079°59'5 9.2
2017-Oct-13 11:01N 25°55' W 079°57'815.9
2017-Oct-13 10:31N 25°47' W 079°57'816.6
2017-Oct-13 10:01N 25°39' W 079°57'816.6
2017-Oct-13 09:31N 25°30' W 079°57'816.7
2017-Oct-13 09:00N 25°22' W 079°58'  
2017-Oct-06 01:33N 29°57' W 090°23'  
Track history (hours):
 
Tides and Currents Weather Stations Pressure Air Temp Water Temp Dewpoint Dewpoint Depression Visibility Wind Speed Wind Dir Waves Ship Positions

West Virginia

Owner: Crowley Petroleum Services, Inc., Jacksonville, FL. More information available from US FCC via Universal Licensing System and Coast Guard Vessel Documentation Center.

Last reported at 2017-Oct-14 23:18 UTC. Time now 2017-Oct-20 18:15 UTC.
Position N 25°13' W 080°05'.

Length 183 m; draft 8.5 m.

Type: Tanker. MMSI: 338158000.

Date/timePositionNaut miles runAvg speedWind from/ knotsBaromVisibWave heightAir tempDewpointWater temp
2017-Oct-14 23:18N 25°13' W 080°05'310.5
2017-Oct-14 23:01N 25°16' W 080°03'510.3
2017-Oct-14 22:30N 25°20' W 080°01'5 9.9
2017-Oct-14 22:00N 25°25' W 080°00'510.0
2017-Oct-14 21:31N 25°30' W 080°00'510.0
2017-Oct-14 21:00N 25°35' W 080°00'510.0
2017-Oct-14 20:31N 25°40' W 079°60'510.2
2017-Oct-14 20:01N 25°45' W 079°60'510.5
2017-Oct-14 19:30N 25°51' W 079°60'510.4
2017-Oct-14 19:00N 25°56' W 079°60'510.5
2017-Oct-14 18:30N 26°01' W 080°00'510.7
2017-Oct-14 18:01N 26°05' W 080°04'3 6.0
2017-Oct-14 17:30N 26°06' W 080°07'0 0.1
2017-Oct-14 16:57N 26°06' W 080°07'0 0.0
2017-Oct-14 16:27N 26°06' W 080°07'0 0.0
2017-Oct-14 15:57N 26°06' W 080°07'0 0.0
2017-Oct-14 15:27N 26°06' W 080°07'0 0.0
2017-Oct-14 14:57N 26°06' W 080°07'0 0.0
2017-Oct-14 14:09N 26°06' W 080°07'0 0.0
2017-Oct-14 13:57N 26°06' W 080°07'0 0.0
2017-Oct-14 13:27N 26°06' W 080°07'0 0.0
2017-Oct-14 13:00N 26°06' W 080°07'0 0.0
2017-Oct-14 12:30N 26°06' W 080°07'0 0.0
2017-Oct-14 12:00N 26°06' W 080°07'0 0.0
2017-Oct-14 11:27N 26°06' W 080°07'0 0.0
2017-Oct-14 10:57N 26°06' W 080°07'0 0.0
2017-Oct-14 10:30N 26°06' W 080°07'0 0.0
2017-Oct-14 10:00N 26°06' W 080°07'0 0.0
2017-Oct-14 09:18N 26°06' W 080°07'0 0.0
2017-Oct-14 09:00N 26°06' W 080°07'0 0.0
2017-Oct-14 08:30N 26°06' W 080°07'0 0.0
2017-Oct-14 08:00N 26°06' W 080°07'0 0.0
2017-Oct-14 07:30N 26°06' W 080°07'0 0.0
2017-Oct-14 07:00N 26°06' W 080°07'0 0.0
2017-Oct-14 06:21N 26°06' W 080°07'0 0.0
2017-Oct-14 06:00N 26°06' W 080°07'0 0.0
2017-Oct-14 05:21N 26°06' W 080°07'0 0.0
2017-Oct-14 04:51N 26°06' W 080°07'0 0.0
2017-Oct-14 04:18N 26°06' W 080°07'0 0.0
2017-Oct-14 03:54N 26°06' W 080°07'0 0.0
2017-Oct-14 03:24N 26°06' W 080°07'0 0.0
2017-Oct-14 02:54N 26°06' W 080°07'0 0.0
2017-Oct-14 02:24N 26°06' W 080°07'0 0.0
2017-Oct-14 01:54N 26°06' W 080°07'0 0.0
2017-Oct-13 23:12N 26°06' W 080°07'0 0.0
2017-Oct-13 22:57N 26°06' W 080°07'0 0.0
2017-Oct-13 22:27N 26°06' W 080°07'0 0.0
2017-Oct-13 22:00N 26°06' W 080°07'0 0.0
2017-Oct-13 21:30N 26°06' W 080°07'0 0.0
2017-Oct-13 21:00N 26°06' W 080°07'0 0.0
2017-Oct-13 20:30N 26°06' W 080°07'0 0.0
2017-Oct-13 20:00N 26°06' W 080°07'0 0.0
2017-Oct-13 19:30N 26°06' W 080°07'0 0.0
2017-Oct-13 19:00N 26°06' W 080°07'0 0.0
2017-Oct-13 18:30N 26°06' W 080°07'0 0.0
2017-Oct-13 17:30N 26°06' W 080°07'0 0.0
2017-Oct-13 17:00N 26°06' W 080°07'0 0.0
2017-Oct-13 16:30N 26°06' W 080°07'0 0.0
2017-Oct-13 16:00N 26°06' W 080°07'0 0.0
2017-Oct-13 15:21N 26°06' W 080°07'0 0.0
2017-Oct-13 15:00N 26°06' W 080°07'0 0.0
2017-Oct-13 14:24N 26°06' W 080°07'0 0.1
2017-Oct-13 14:00N 26°06' W 080°07'2 3.4
2017-Oct-13 13:30N 26°06' W 080°05'4 8.5
2017-Oct-13 13:01N 26°09' W 080°02'4 7.8
2017-Oct-13 12:30N 26°05' W 080°02'4 7.1
2017-Oct-13 12:00N 26°02' W 080°01'3 6.0
2017-Oct-13 11:30N 25°59' W 079°59'5 9.2
2017-Oct-13 11:01N 25°55' W 079°57'815.9
2017-Oct-13 10:31N 25°47' W 079°57'816.6
2017-Oct-13 10:01N 25°39' W 079°57'816.6
2017-Oct-13 09:31N 25°30' W 079°57'816.7
2017-Oct-13 09:00N 25°22' W 079°58'  
2017-Oct-06 01:33N 29°57' W 090°23'  

Dump ship's entire track history